createdAt,value
2023-06-16T00:00:12.829Z,73.62
2023-06-16T00:01:56.835Z,73.68
2023-06-16T00:03:45.958Z,73.60
2023-06-16T00:05:25.549Z,73.62
2023-06-16T00:06:59.371Z,73.13
2023-06-16T00:08:33.146Z,72.87
2023-06-16T00:09:56.809Z,72.94
2023-06-16T00:11:37.911Z,72.97
2023-06-16T00:13:28.303Z,72.77
2023-06-16T00:15:14.532Z,72.53
2023-06-16T00:17:00.508Z,72.01
2023-06-16T00:18:29.710Z,71.51
2023-06-16T00:20:03.216Z,71.27
2023-06-16T00:21:47.218Z,70.84
2023-06-16T00:23:23.976Z,70.74
2023-06-16T00:25:08.937Z,70.41
2023-06-16T00:26:50.918Z,70.13
2023-06-16T00:28:15.511Z,69.84
2023-06-16T00:29:48.731Z,69.64
2023-06-16T00:31:34.424Z,69.30
2023-06-16T00:33:08.223Z,69.27
2023-06-16T00:34:44.146Z,69.46
2023-06-16T00:36:29.704Z,69.25
2023-06-16T00:37:59.417Z,69.22
2023-06-16T00:39:21.268Z,69.45
2023-06-16T00:40:45.330Z,69.54
2023-06-16T00:42:19.354Z,69.66
2023-06-16T00:43:55.103Z,69.54
2023-06-16T00:45:31.411Z,69.60
2023-06-16T00:47:18.492Z,69.61
2023-06-16T00:48:50.720Z,69.76
2023-06-16T00:50:12.697Z,70.20
2023-06-16T00:51:45.910Z,70.23
2023-06-16T00:53:22.291Z,70.62
2023-06-16T00:55:03.405Z,70.58
2023-06-16T00:56:38.389Z,70.91
2023-06-16T00:58:19.724Z,70.96
2023-06-16T01:00:05.353Z,71.13
2023-06-16T01:01:29.387Z,71.06
2023-06-16T01:03:23.643Z,71.20
2023-06-16T01:04:47.518Z,71.23
2023-06-16T01:06:22.575Z,71.63
2023-06-16T01:08:12.006Z,71.55
2023-06-16T01:10:05.435Z,71.49
2023-06-16T01:11:41.321Z,71.73
2023-06-16T01:13:14.982Z,71.91
2023-06-16T01:15:01.436Z,71.99
2023-06-16T01:16:36.501Z,72.08
2023-06-16T01:18:21.914Z,72.36
2023-06-16T01:19:57.554Z,72.27
2023-06-16T01:21:43.897Z,72.22
2023-06-16T01:23:29.430Z,72.33
2023-06-16T01:25:17.322Z,72.37
2023-06-16T01:26:58.930Z,72.28
2023-06-16T01:28:32.950Z,72.42
2023-06-16T01:30:20.582Z,72.13
2023-06-16T01:32:14.345Z,72.26
2023-06-16T01:33:47.528Z,72.27
2023-06-16T01:35:21.033Z,72.19
2023-06-16T01:36:54.331Z,72.17
2023-06-16T01:38:27.715Z,72.50
2023-06-16T01:40:03.030Z,72.63
2023-06-16T01:41:26.298Z,72.83
2023-06-16T01:42:52.650Z,72.69
2023-06-16T01:44:19.139Z,72.73
2023-06-16T01:46:04.367Z,72.73
2023-06-16T01:47:59.418Z,72.97
2023-06-16T01:49:36.388Z,73.29
2023-06-16T01:51:18.696Z,73.44
2023-06-16T01:52:42.715Z,73.65
2023-06-16T01:54:27.979Z,73.78
2023-06-16T01:56:13.306Z,73.81
2023-06-16T01:57:58.465Z,73.93
2023-06-16T01:59:22.776Z,73.83
2023-06-16T02:01:09.042Z,74.08
2023-06-16T02:02:49.971Z,74.05
2023-06-16T02:04:34.862Z,73.91
2023-06-16T02:06:08.456Z,73.86
2023-06-16T02:07:49.482Z,73.71
2023-06-16T02:09:23.365Z,73.40
2023-06-16T02:10:59.096Z,73.57
2023-06-16T02:12:53.364Z,73.59
2023-06-16T02:14:29.218Z,73.65
2023-06-16T02:16:06.881Z,73.63
2023-06-16T02:17:59.613Z,73.61
2023-06-16T02:19:41.154Z,73.46
2023-06-16T02:21:06.349Z,73.82
2023-06-16T02:22:32.719Z,73.79
2023-06-16T02:23:54.477Z,74.19
2023-06-16T02:25:30.022Z,74.03
2023-06-16T02:27:05.472Z,74.21
2023-06-16T02:28:50.657Z,74.21
2023-06-16T02:30:26.269Z,74.10
2023-06-16T02:31:52.459Z,74.15
2023-06-16T02:33:26.673Z,74.16
2023-06-16T02:35:17.127Z,74.15
2023-06-16T02:36:51.481Z,74.11
2023-06-16T02:38:27.598Z,74.15
2023-06-16T02:40:09.156Z,74.12
2023-06-16T02:41:52.391Z,74.19
2023-06-16T02:43:46.654Z,73.79
2023-06-16T02:45:20.126Z,74.05
2023-06-16T02:46:53.769Z,74.02
2023-06-16T02:48:39.494Z,73.93
2023-06-16T02:50:15.354Z,73.83
2023-06-16T02:51:56.303Z,73.75
2023-06-16T02:53:23.715Z,73.88
2023-06-16T02:54:57.098Z,73.71
2023-06-16T02:56:50.398Z,73.76
2023-06-16T02:58:26.950Z,73.84
2023-06-16T03:00:06.320Z,73.66
2023-06-16T03:01:45.838Z,73.75
2023-06-16T03:03:39.832Z,73.93
2023-06-16T03:05:36.462Z,73.87
2023-06-16T03:07:22.908Z,73.85
2023-06-16T03:08:46.889Z,74.02
2023-06-16T03:10:22.890Z,73.86
2023-06-16T03:12:11.345Z,74.04
2023-06-16T03:14:09.366Z,73.99
2023-06-16T03:15:33.494Z,73.97
2023-06-16T03:17:19.917Z,73.75
2023-06-16T03:18:51.071Z,73.62
2023-06-16T03:20:36.608Z,73.37
2023-06-16T03:22:17.944Z,73.35
2023-06-16T03:23:47.329Z,73.36
2023-06-16T03:25:33.931Z,73.30
2023-06-16T03:27:27.565Z,73.39
2023-06-16T03:31:23.569Z,73.61
2023-06-16T03:32:47.818Z,73.72
2023-06-16T03:34:32.829Z,73.97
2023-06-16T03:36:06.572Z,74.11
2023-06-16T03:37:53.468Z,73.94
2023-06-16T03:39:34.885Z,73.74
2023-06-16T03:41:10.885Z,73.87
2023-06-16T03:42:55.762Z,73.88
2023-06-16T03:44:29.047Z,74.22
2023-06-16T03:46:15.660Z,73.83
2023-06-16T03:47:49.054Z,73.84
2023-06-16T03:49:35.335Z,73.64
2023-06-16T03:54:41.324Z,73.24
2023-06-16T03:56:14.734Z,73.03
2023-06-16T03:57:45.042Z,72.85
2023-06-16T03:59:30.496Z,73.08
2023-06-16T04:01:16.823Z,72.93
2023-06-16T04:03:01.579Z,72.99
2023-06-16T04:04:26.654Z,72.56
2023-06-16T04:06:09.380Z,72.77
2023-06-16T04:07:45.281Z,72.37
2023-06-16T04:09:19.029Z,72.42
2023-06-16T04:10:44.730Z,71.96
2023-06-16T04:12:26.191Z,72.06
2023-06-16T04:14:06.676Z,71.65
2023-06-16T04:15:40.180Z,71.78
2023-06-16T04:17:09.458Z,71.79
2023-06-16T04:18:55.195Z,71.43
2023-06-16T04:20:22.223Z,71.38
2023-06-16T04:21:59.280Z,71.15
2023-06-16T04:23:38.498Z,71.16
2023-06-16T04:25:23.845Z,70.79
2023-06-16T04:27:11.068Z,70.94
2023-06-16T04:28:52.320Z,70.62
2023-06-16T04:30:23.915Z,70.97
2023-06-16T04:32:06.462Z,70.60
2023-06-16T04:33:54.350Z,70.82
2023-06-16T04:35:28.367Z,70.63
2023-06-16T04:37:10.054Z,70.66
2023-06-16T04:38:56.748Z,70.43
2023-06-16T04:40:32.304Z,70.35
2023-06-16T04:42:17.450Z,70.32
2023-06-16T04:43:40.524Z,70.18
2023-06-16T04:45:25.644Z,70.10
2023-06-16T04:47:13.876Z,70.10
2023-06-16T04:48:47.427Z,70.15
2023-06-16T04:50:21.240Z,70.00
2023-06-16T04:51:54.654Z,69.91
2023-06-16T04:53:40.053Z,69.96
2023-06-16T04:55:16.158Z,69.65
2023-06-16T04:56:56.812Z,69.64
2023-06-16T04:58:30.632Z,69.33
2023-06-16T05:00:04.596Z,69.45
2023-06-16T05:01:29.287Z,69.42
2023-06-16T05:02:58.067Z,69.06
2023-06-16T05:04:45.236Z,68.99
2023-06-16T05:06:32.676Z,68.99
2023-06-16T05:08:01.888Z,68.97
2023-06-16T05:09:47.416Z,68.74
2023-06-16T05:11:20.936Z,68.74
2023-06-16T05:12:52.549Z,68.69
2023-06-16T05:14:26.853Z,68.50
2023-06-16T05:16:09.370Z,68.22
2023-06-16T05:17:54.435Z,68.15
2023-06-16T05:19:34.813Z,68.13
2023-06-16T05:21:20.328Z,67.97
2023-06-16T05:23:15.423Z,67.81
2023-06-16T05:24:49.433Z,67.84
2023-06-16T05:26:23.575Z,67.56
2023-06-16T05:27:48.110Z,67.64
2023-06-16T05:29:22.011Z,67.63
2023-06-16T05:30:55.493Z,67.32
2023-06-16T05:32:17.603Z,67.39
2023-06-16T05:34:02.623Z,67.49
2023-06-16T05:35:52.418Z,66.74
2023-06-16T05:37:33.215Z,66.48
2023-06-16T05:39:28.484Z,66.78
2023-06-16T05:41:13.884Z,66.09
2023-06-16T05:42:45.767Z,65.94
2023-06-16T05:44:08.413Z,65.66
2023-06-16T05:45:45.092Z,65.48
2023-06-16T05:47:20.490Z,64.96
2023-06-16T05:49:02.678Z,64.68
2023-06-16T05:50:44.157Z,64.38
2023-06-16T05:52:25.226Z,64.40
2023-06-16T05:53:49.413Z,64.16
2023-06-16T05:55:15.758Z,63.66
2023-06-16T05:56:56.150Z,63.08
2023-06-16T05:58:29.762Z,63.23
2023-06-16T06:00:10.540Z,62.69
2023-06-16T06:01:55.566Z,62.25
2023-06-16T06:03:25.833Z,62.65
2023-06-16T06:04:59.701Z,62.22
2023-06-16T06:06:48.420Z,61.40
2023-06-16T06:08:12.312Z,61.02
2023-06-16T06:09:36.940Z,60.19
2023-06-16T06:11:22.102Z,59.74
2023-06-16T06:13:12.348Z,59.36
2023-06-16T06:14:54.456Z,58.83
2023-06-16T06:16:30.707Z,58.54
2023-06-16T06:17:56.950Z,58.32
2023-06-16T06:19:42.494Z,58.48
2023-06-16T06:21:09.040Z,58.26
2023-06-16T06:22:48.114Z,58.35
2023-06-16T06:24:34.400Z,58.28
2023-06-16T06:26:07.856Z,58.22
2023-06-16T06:27:41.487Z,58.52
2023-06-16T06:29:17.717Z,58.53
2023-06-16T06:31:04.245Z,58.52
2023-06-16T06:32:46.003Z,57.20
2023-06-16T06:34:17.869Z,57.91
2023-06-16T06:35:47.217Z,57.95
2023-06-16T06:37:33.217Z,57.91
2023-06-16T06:39:04.297Z,57.34
2023-06-16T06:40:37.643Z,57.23
2023-06-16T06:42:18.774Z,57.71
2023-06-16T06:43:46.357Z,57.21
2023-06-16T06:45:12.613Z,56.95
2023-06-16T06:46:53.524Z,56.97
2023-06-16T06:48:39.989Z,55.99
2023-06-16T06:50:14.942Z,56.53
2023-06-16T06:51:56.030Z,56.79
2023-06-16T06:53:29.200Z,56.72
2023-06-16T06:54:51.120Z,56.88
2023-06-16T06:56:15.791Z,56.84
2023-06-16T06:57:45.630Z,56.74
2023-06-16T06:59:14.940Z,56.46
2023-06-16T07:00:50.643Z,56.40
2023-06-16T07:02:26.752Z,56.46
2023-06-16T07:04:21.366Z,56.44
2023-06-16T07:05:50.425Z,56.90
2023-06-16T07:07:25.970Z,56.90
2023-06-16T07:09:03.380Z,56.95
2023-06-16T07:10:33.161Z,56.74
2023-06-16T07:12:26.843Z,56.58
2023-06-16T07:14:11.696Z,56.63
2023-06-16T07:15:52.763Z,56.66
2023-06-16T07:17:43.563Z,56.34
2023-06-16T07:19:16.881Z,55.64
2023-06-16T07:20:52.612Z,55.08
2023-06-16T07:22:34.745Z,55.33
2023-06-16T07:24:08.431Z,54.32
2023-06-16T07:25:45.250Z,54.12
2023-06-16T07:27:07.410Z,53.78
2023-06-16T07:28:31.553Z,53.13
2023-06-16T07:30:04.671Z,53.24
2023-06-16T07:31:28.752Z,52.82
2023-06-16T07:33:09.906Z,52.65
2023-06-16T07:34:46.251Z,51.96
2023-06-16T07:36:19.798Z,51.79
2023-06-16T07:37:53.371Z,52.28
2023-06-16T07:39:26.856Z,51.93
2023-06-16T07:41:21.395Z,51.86
2023-06-16T07:43:06.084Z,52.37
2023-06-16T07:44:51.014Z,51.51
2023-06-16T07:46:18.255Z,51.61
2023-06-16T07:47:47.350Z,52.04
2023-06-16T07:49:11.405Z,51.90
2023-06-16T07:50:35.864Z,51.59
2023-06-16T07:52:17.942Z,51.95
2023-06-16T07:53:44.244Z,51.74
2023-06-16T07:55:15.790Z,51.70
2023-06-16T07:57:09.352Z,51.51
2023-06-16T07:59:04.387Z,51.31
2023-06-16T08:00:45.176Z,51.39
2023-06-16T08:02:09.214Z,50.91
2023-06-16T08:03:50.258Z,50.39
2023-06-16T08:05:17.530Z,49.90
2023-06-16T08:07:02.488Z,50.02
2023-06-16T08:08:43.023Z,49.63
2023-06-16T08:10:32.306Z,48.98
2023-06-16T08:14:24.633Z,49.61
2023-06-16T08:16:09.497Z,49.63
2023-06-16T08:17:45.650Z,49.31
2023-06-16T08:19:31.231Z,48.88
2023-06-16T08:21:08.119Z,47.95
2023-06-16T08:22:33.399Z,47.53
2023-06-16T08:24:18.903Z,46.93
2023-06-16T08:26:03.474Z,47.14
2023-06-16T08:27:39.042Z,46.48
2023-06-16T08:29:24.873Z,44.51
2023-06-16T08:31:05.610Z,44.17
2023-06-16T08:32:47.034Z,45.05
2023-06-16T08:34:15.767Z,44.20
2023-06-16T08:36:01.576Z,44.92
2023-06-16T08:37:42.074Z,44.05
2023-06-16T08:39:06.599Z,44.49
2023-06-16T08:40:28.322Z,45.50
2023-06-16T08:42:01.868Z,45.11
2023-06-16T08:43:37.643Z,44.61
2023-06-16T08:45:13.734Z,44.86
2023-06-16T08:46:38.067Z,44.15
2023-06-16T08:48:20.011Z,42.85
2023-06-16T08:49:55.844Z,42.58
2023-06-16T08:51:29.488Z,42.66
2023-06-16T08:53:18.639Z,42.33
2023-06-16T08:55:00.423Z,42.61
2023-06-16T08:56:30.272Z,43.05
2023-06-16T08:57:59.345Z,43.59
2023-06-16T08:59:35.558Z,42.94
2023-06-16T09:01:11.023Z,42.96
2023-06-16T09:03:01.562Z,42.52
2023-06-16T09:04:42.412Z,42.72
2023-06-16T09:06:28.104Z,42.03
2023-06-16T09:08:04.800Z,41.77
2023-06-16T09:09:50.636Z,40.92
2023-06-16T09:11:36.089Z,40.20
2023-06-16T09:13:11.530Z,39.72
2023-06-16T09:15:01.360Z,39.21
2023-06-16T09:16:42.258Z,39.01
2023-06-16T09:18:27.931Z,39.43
2023-06-16T09:20:01.251Z,39.59
2023-06-16T09:21:43.566Z,39.81
2023-06-16T09:23:19.760Z,40.28
2023-06-16T09:25:14.394Z,39.98
2023-06-16T09:26:59.766Z,40.93
2023-06-16T09:28:33.765Z,40.86
2023-06-16T09:30:02.931Z,40.38
2023-06-16T09:31:47.921Z,40.82
2023-06-16T09:33:10.306Z,41.87
2023-06-16T09:34:49.849Z,40.72
2023-06-16T09:36:35.127Z,41.26
2023-06-16T09:37:57.778Z,41.35
